Time;durP1;ratioP1;P1;durP2;ratioP2;P2;SDS_P1;SDS_P2;PMS_P1;PMS_P2;Temp;Humidity;BMP_temperature;BMP_pressure;BME280_temperature;BME280_humidity;BME280_pressure;Samples;Min_cycle;Max_cycle;Signal;HPM_P1;HPM_P2
2022/01/31 00:01:00;;;;;;;12.50;1.73;;;;;;;;;;5031129;28;20526;-66
2022/01/31 00:03:26;;;;;;;8.85;1.42;;;;;;;;;;5038105;28;20028;-66
2022/01/31 00:05:52;;;;;;;11.00;1.77;;;;;;;;;;5043846;28;20025;-66
2022/01/31 00:08:23;;;;;;;10.35;1.02;;;;;;;;;;5027008;28;20428;-66
2022/01/31 00:10:50;;;;;;;7.65;1.10;;;;;;;;;;5036098;28;20029;-66
2022/01/31 00:13:39;;;;;;;8.65;1.27;;;;;;;;;;5049011;28;20523;-66
2022/01/31 00:16:07;;;;;;;9.90;1.10;;;;;;;;;;5042779;28;20037;-66
2022/01/31 00:18:33;;;;;;;6.28;1.77;;;;;;;;;;5038472;28;20021;-66
2022/01/31 00:20:59;;;;;;;8.60;1.48;;;;;;;;;;5048697;28;20079;-66
2022/01/31 00:23:25;;;;;;;12.18;1.42;;;;;;;;;;5036270;28;20071;-66
2022/01/31 00:25:51;;;;;;;10.98;1.48;;;;;;;;;;5044047;28;20084;-66
2022/01/31 00:28:18;;;;;;;13.55;1.70;;;;;;;;;;5044233;28;20024;-66
2022/01/31 00:30:44;;;;;;;10.70;1.67;;;;;;;;;;5036770;28;20057;-66
2022/01/31 00:33:10;;;;;;;18.85;1.70;;;;;;;;;;5048533;28;20087;-66
2022/01/31 00:35:36;;;;;;;8.35;2.10;;;;;;;;;;5020815;28;20021;-66
2022/01/31 00:38:02;;;;;;;12.23;1.75;;;;;;;;;;5041969;28;20092;-66
2022/01/31 00:40:28;;;;;;;16.08;2.22;;;;;;;;;;5045654;28;20126;-66
2022/01/31 00:42:55;;;;;;;11.05;1.80;;;;;;;;;;5035329;28;20163;-66
2022/01/31 00:45:27;;;;;;;15.88;2.00;;;;;;;;;;5033709;28;20496;-66
2022/01/31 00:48:06;;;;;;;4.68;1.67;;;;;;;;;;5026000;28;20033;-66
2022/01/31 00:50:40;;;;;;;12.60;1.45;;;;;;;;;;5046032;28;20067;-66
2022/01/31 00:53:06;;;;;;;9.38;1.48;;;;;;;;;;5034922;28;20426;-66
2022/01/31 00:55:32;;;;;;;7.72;1.60;;;;;;;;;;5046763;28;20013;-66
2022/01/31 00:57:58;;;;;;;9.73;1.50;;;;;;;;;;5040903;28;20033;-66
2022/01/31 01:00:25;;;;;;;9.23;1.58;;;;;;;;;;5039417;28;20087;-66
2022/01/31 01:02:51;;;;;;;14.13;1.80;;;;;;;;;;5030282;28;20040;-66
2022/01/31 01:05:17;;;;;;;15.82;1.80;;;;;;;;;;5035084;28;20052;-66
2022/01/31 01:07:45;;;;;;;7.63;1.75;;;;;;;;;;5026221;28;20032;-66
2022/01/31 01:10:12;;;;;;;14.07;2.10;;;;;;;;;;5042240;28;20028;-66
2022/01/31 01:12:39;;;;;;;21.13;4.20;;;;;;;;;;5019815;28;20116;-66
2022/01/31 01:15:05;;;;;;;18.17;2.58;;;;;;;;;;5048019;28;20024;-66
2022/01/31 01:17:32;;;;;;;14.95;3.03;;;;;;;;;;5019258;28;20079;-66
2022/01/31 01:19:58;;;;;;;12.38;2.10;;;;;;;;;;5025262;28;20509;-66
2022/01/31 01:22:24;;;;;;;22.38;2.50;;;;;;;;;;5025628;28;20060;-66
2022/01/31 01:24:50;;;;;;;17.90;2.08;;;;;;;;;;5035972;28;20029;-66
2022/01/31 01:27:21;;;;;;;17.13;2.47;;;;;;;;;;5047790;28;20074;-66
2022/01/31 01:29:48;;;;;;;15.75;2.40;;;;;;;;;;5021183;28;20481;-66
2022/01/31 01:32:17;;;;;;;26.55;2.45;;;;;;;;;;5040434;28;20420;-66
2022/01/31 01:34:44;;;;;;;16.65;3.33;;;;;;;;;;5028482;28;20064;-66
2022/01/31 01:37:11;;;;;;;19.50;2.95;;;;;;;;;;5016705;28;20029;-66
2022/01/31 01:39:37;;;;;;;17.20;2.70;;;;;;;;;;5046013;28;20044;-66
2022/01/31 01:42:03;;;;;;;18.98;2.95;;;;;;;;;;5022629;28;20119;-66
2022/01/31 01:44:43;;;;;;;20.02;2.63;;;;;;;;;;5043304;28;20035;-66
2022/01/31 01:47:10;;;;;;;30.88;4.18;;;;;;;;;;5031015;28;20401;-66
2022/01/31 01:49:36;;;;;;;20.88;3.42;;;;;;;;;;5018915;28;20032;-66
2022/01/31 01:52:03;;;;;;;27.98;3.42;;;;;;;;;;5024626;28;20367;-66
2022/01/31 01:54:29;;;;;;;21.30;2.63;;;;;;;;;;5026433;28;20021;-66
2022/01/31 01:56:55;;;;;;;23.33;3.30;;;;;;;;;;5017529;28;20034;-66
2022/01/31 01:59:21;;;;;;;17.30;2.33;;;;;;;;;;5029969;28;20025;-66
2022/01/31 02:02:06;;;;;;;16.95;3.08;;;;;;;;;;5022443;28;20040;-66
2022/01/31 02:04:32;;;;;;;16.58;2.50;;;;;;;;;;5020606;28;20540;-66
2022/01/31 02:07:03;;;;;;;20.58;2.95;;;;;;;;;;5029768;28;20505;-66
2022/01/31 02:09:31;;;;;;;18.73;2.25;;;;;;;;;;5017817;28;20029;-66
2022/01/31 02:11:57;;;;;;;23.20;3.95;;;;;;;;;;5025709;28;20091;-66
2022/01/31 02:14:24;;;;;;;18.85;2.45;;;;;;;;;;5024953;28;20083;-67
2022/01/31 02:17:16;;;;;;;17.08;3.10;;;;;;;;;;5034231;28;20029;-66
2022/01/31 02:19:58;;;;;;;18.35;2.65;;;;;;;;;;5027167;28;20029;-67
2022/01/31 02:22:33;;;;;;;23.50;4.20;;;;;;;;;;5029762;28;20029;-66
2022/01/31 02:24:59;;;;;;;26.40;3.80;;;;;;;;;;5038820;28;20037;-66
2022/01/31 02:27:43;;;;;;;25.88;4.07;;;;;;;;;;5054594;28;20055;-66
2022/01/31 02:30:15;;;;;;;30.58;4.00;;;;;;;;;;5027104;28;20072;-66
2022/01/31 02:32:46;;;;;;;25.15;3.75;;;;;;;;;;5031225;28;20457;-66
2022/01/31 02:35:13;;;;;;;32.42;3.72;;;;;;;;;;5037700;28;20029;-66
2022/01/31 02:37:39;;;;;;;23.83;4.63;;;;;;;;;;5031768;28;20432;-66
2022/01/31 02:40:32;;;;;;;27.90;5.70;;;;;;;;;;5043466;28;20404;-66
2022/01/31 02:43:02;;;;;;;23.10;4.47;;;;;;;;;;5020300;28;20448;-66
2022/01/31 02:45:30;;;;;;;20.40;3.45;;;;;;;;;;5035957;28;20078;-66
2022/01/31 02:48:00;;;;;;;25.27;3.83;;;;;;;;;;5028726;28;20456;-66
2022/01/31 02:50:31;;;;;;;17.67;2.63;;;;;;;;;;5028502;28;20036;-66
2022/01/31 02:53:10;;;;;;;27.55;4.43;;;;;;;;;;5020883;28;20049;-66
2022/01/31 02:55:38;;;;;;;44.63;4.20;;;;;;;;;;5036250;28;20067;-66
2022/01/31 02:58:04;;;;;;;27.40;3.40;;;;;;;;;;5027910;28;20057;-65
2022/01/31 03:00:30;;;;;;;22.65;3.08;;;;;;;;;;5028130;28;20516;-66
2022/01/31 03:03:06;;;;;;;30.67;3.33;;;;;;;;;;5019265;28;20044;-67
2022/01/31 03:05:33;;;;;;;20.90;3.72;;;;;;;;;;5032273;28;20041;-66
2022/01/31 03:07:59;;;;;;;21.42;4.03;;;;;;;;;;5023685;28;20488;-66
2022/01/31 03:10:26;;;;;;;25.70;3.05;;;;;;;;;;5025109;28;20026;-65
2022/01/31 03:12:52;;;;;;;20.23;3.38;;;;;;;;;;5030838;28;20110;-65
2022/01/31 03:15:19;;;;;;;14.68;2.85;;;;;;;;;;5019117;28;20033;-65
2022/01/31 03:18:06;;;;;;;15.43;3.08;;;;;;;;;;4984146;28;20031;-65
2022/01/31 03:20:32;;;;;;;27.52;3.65;;;;;;;;;;4968006;28;20043;-65
2022/01/31 03:22:59;;;;;;;16.83;3.38;;;;;;;;;;4977280;28;20491;-65
2022/01/31 03:25:25;;;;;;;19.50;3.55;;;;;;;;;;4988498;28;20093;-65
2022/01/31 03:27:51;;;;;;;17.80;3.08;;;;;;;;;;4962508;28;20050;-65
2022/01/31 03:30:19;;;;;;;23.13;3.13;;;;;;;;;;4981823;28;20073;-65
2022/01/31 03:32:46;;;;;;;21.75;3.35;;;;;;;;;;4969076;28;20064;-65
2022/01/31 03:35:12;;;;;;;19.95;3.92;;;;;;;;;;4975612;28;20034;-66
2022/01/31 03:37:38;;;;;;;19.77;3.08;;;;;;;;;;4987801;28;20552;-66
2022/01/31 03:40:05;;;;;;;27.30;4.43;;;;;;;;;;4963844;28;20050;-66
2022/01/31 03:42:32;;;;;;;14.50;2.50;;;;;;;;;;4980395;28;20047;-66
2022/01/31 03:44:58;;;;;;;14.80;3.05;;;;;;;;;;4970796;28;20063;-65
2022/01/31 03:47:24;;;;;;;21.48;2.85;;;;;;;;;;4988612;28;20514;-65
2022/01/31 03:49:51;;;;;;;17.63;3.15;;;;;;;;;;4961646;28;20030;-65
2022/01/31 03:52:18;;;;;;;19.60;3.22;;;;;;;;;;4982371;28;20471;-65
2022/01/31 03:54:46;;;;;;;21.88;2.75;;;;;;;;;;4989125;28;20064;-65
2022/01/31 03:57:12;;;;;;;18.27;3.22;;;;;;;;;;5036175;28;20176;-65
2022/01/31 03:59:50;;;;;;;21.38;3.05;;;;;;;;;;5029235;28;20034;-65
2022/01/31 04:02:17;;;;;;;24.10;4.28;;;;;;;;;;5024376;28;20122;-65
2022/01/31 04:04:43;;;;;;;22.58;3.03;;;;;;;;;;5040279;28;20382;-65
2022/01/31 04:07:09;;;;;;;25.20;3.85;;;;;;;;;;5048895;28;20115;-65
2022/01/31 04:09:35;;;;;;;32.58;4.75;;;;;;;;;;5036567;28;20024;-65
2022/01/31 04:12:01;;;;;;;23.17;4.05;;;;;;;;;;5046025;28;20033;-65
2022/01/31 04:14:27;;;;;;;27.67;4.05;;;;;;;;;;5042835;28;20477;-65
2022/01/31 04:16:55;;;;;;;16.50;3.35;;;;;;;;;;5038657;28;20088;-65
2022/01/31 04:19:22;;;;;;;31.45;3.55;;;;;;;;;;5049083;28;20393;-65
2022/01/31 04:21:48;;;;;;;22.80;4.03;;;;;;;;;;5037782;28;20151;-65
2022/01/31 04:24:20;;;;;;;19.58;3.75;;;;;;;;;;5050299;28;20017;-65
2022/01/31 04:26:56;;;;;;;20.17;3.60;;;;;;;;;;5039803;28;20068;-65
2022/01/31 04:29:22;;;;;;;17.10;3.95;;;;;;;;;;5048127;28;20427;-65
2022/01/31 04:31:51;;;;;;;18.10;3.78;;;;;;;;;;5037484;28;20481;-66
2022/01/31 04:34:17;;;;;;;24.33;4.05;;;;;;;;;;5043314;28;20033;-66
2022/01/31 04:36:44;;;;;;;31.75;4.35;;;;;;;;;;5044902;28;20027;-66
2022/01/31 04:39:16;;;;;;;19.27;3.03;;;;;;;;;;5036263;28;20044;-66
2022/01/31 04:41:42;;;;;;;27.30;4.22;;;;;;;;;;5052078;28;20493;-66
2022/01/31 04:44:09;;;;;;;29.95;3.28;;;;;;;;;;5046143;28;20030;-66
2022/01/31 04:46:35;;;;;;;19.85;3.92;;;;;;;;;;5051871;28;20027;-66
2022/01/31 04:49:01;;;;;;;19.20;2.85;;;;;;;;;;5037535;28;20581;-66
2022/01/31 04:51:28;;;;;;;23.98;3.30;;;;;;;;;;5048240;28;20404;-66
2022/01/31 04:53:54;;;;;;;21.38;4.30;;;;;;;;;;5037597;28;20082;-66
2022/01/31 04:56:20;;;;;;;17.58;3.10;;;;;;;;;;5043169;28;20039;-65
2022/01/31 04:58:46;;;;;;;17.25;3.63;;;;;;;;;;5044300;28;20029;-66
2022/01/31 05:01:12;;;;;;;19.38;4.88;;;;;;;;;;5035985;28;20029;-65
2022/01/31 05:03:38;;;;;;;19.30;3.45;;;;;;;;;;5048196;28;20040;-65
2022/01/31 05:06:05;;;;;;;25.58;3.70;;;;;;;;;;5038697;28;20040;-66
2022/01/31 05:08:33;;;;;;;17.52;3.40;;;;;;;;;;5023567;28;20076;-66
2022/01/31 05:10:59;;;;;;;18.65;3.13;;;;;;;;;;5046138;28;20021;-66
2022/01/31 05:13:25;;;;;;;21.05;2.97;;;;;;;;;;5034880;28;20553;-66
2022/01/31 05:15:53;;;;;;;27.65;3.63;;;;;;;;;;5047256;28;20058;-66
2022/01/31 05:18:20;;;;;;;26.95;3.70;;;;;;;;;;5040453;28;20437;-66
2022/01/31 05:20:46;;;;;;;30.20;4.10;;;;;;;;;;5039321;28;20041;-66
2022/01/31 05:23:12;;;;;;;23.52;5.15;;;;;;;;;;5047870;28;20029;-66
2022/01/31 05:25:38;;;;;;;11.90;3.10;;;;;;;;;;5034806;28;20386;-65
2022/01/31 05:28:05;;;;;;;31.15;4.45;;;;;;;;;;5045117;28;20033;-66
2022/01/31 05:30:31;;;;;;;23.85;3.70;;;;;;;;;;5041631;28;20044;-66
2022/01/31 05:32:57;;;;;;;26.33;3.90;;;;;;;;;;5038115;28;20579;-66
2022/01/31 05:35:23;;;;;;;37.08;4.45;;;;;;;;;;5047788;28;20037;-66
2022/01/31 05:37:49;;;;;;;27.02;4.32;;;;;;;;;;5035963;28;20028;-66
2022/01/31 05:40:15;;;;;;;18.13;3.83;;;;;;;;;;5043817;28;20053;-66
2022/01/31 05:42:41;;;;;;;20.85;4.55;;;;;;;;;;5042346;28;20040;-66
2022/01/31 05:45:08;;;;;;;21.33;3.90;;;;;;;;;;5046535;28;20040;-66
2022/01/31 05:47:34;;;;;;;29.02;5.15;;;;;;;;;;5049057;28;20036;-66
2022/01/31 05:50:00;;;;;;;17.70;4.20;;;;;;;;;;5037117;28;20099;-66
2022/01/31 05:52:26;;;;;;;23.08;3.40;;;;;;;;;;5042497;28;20103;-66
2022/01/31 05:54:53;;;;;;;46.83;9.40;;;;;;;;;;5046277;28;20045;-66
2022/01/31 05:57:19;;;;;;;18.88;3.85;;;;;;;;;;5021125;28;20025;-66
2022/01/31 05:59:45;;;;;;;18.63;3.60;;;;;;;;;;5051609;28;20553;-66
2022/01/31 06:02:11;;;;;;;18.17;3.42;;;;;;;;;;5051722;28;20500;-66
2022/01/31 06:04:37;;;;;;;28.58;5.20;;;;;;;;;;5039817;28;20506;-66
2022/01/31 06:07:03;;;;;;;29.50;3.88;;;;;;;;;;5049195;28;20025;-66
2022/01/31 06:09:31;;;;;;;23.08;3.85;;;;;;;;;;5038122;28;20116;-66
2022/01/31 06:12:00;;;;;;;26.48;4.47;;;;;;;;;;5044696;28;20044;-66
2022/01/31 06:14:26;;;;;;;21.25;3.65;;;;;;;;;;5053754;28;20036;-66
2022/01/31 06:16:53;;;;;;;28.45;4.70;;;;;;;;;;5045587;28;20060;-66
2022/01/31 06:19:19;;;;;;;18.30;3.53;;;;;;;;;;5046006;28;20420;-66
2022/01/31 06:21:45;;;;;;;27.50;4.03;;;;;;;;;;5050332;28;20029;-66
2022/01/31 06:24:13;;;;;;;18.15;4.82;;;;;;;;;;5040616;28;20037;-66
2022/01/31 06:26:40;;;;;;;25.17;4.60;;;;;;;;;;5033651;28;20532;-66
2022/01/31 06:29:12;;;;;;;28.37;4.37;;;;;;;;;;5021066;28;20500;-66
2022/01/31 06:31:44;;;;;;;24.40;4.35;;;;;;;;;;5023079;28;20264;-66
2022/01/31 06:34:10;;;;;;;24.10;3.67;;;;;;;;;;5046669;28;20031;-66
2022/01/31 06:36:36;;;;;;;17.70;3.47;;;;;;;;;;5046219;28;20024;-66
2022/01/31 06:39:03;;;;;;;23.25;4.05;;;;;;;;;;5046525;28;20041;-66
2022/01/31 06:41:29;;;;;;;15.88;3.65;;;;;;;;;;5041888;28;20029;-66
2022/01/31 06:43:56;;;;;;;21.10;4.75;;;;;;;;;;5051618;28;21246;-66
2022/01/31 06:46:22;;;;;;;30.42;4.00;;;;;;;;;;5041011;28;20028;-66
2022/01/31 06:48:48;;;;;;;23.77;3.25;;;;;;;;;;5036736;28;20029;-68
2022/01/31 06:51:14;;;;;;;20.55;4.22;;;;;;;;;;5052391;28;20363;-66
2022/01/31 06:53:41;;;;;;;26.20;3.78;;;;;;;;;;5044803;28;20040;-66
2022/01/31 06:56:07;;;;;;;29.38;4.95;;;;;;;;;;5047874;28;20060;-66
2022/01/31 06:58:34;;;;;;;18.92;4.60;;;;;;;;;;5048792;28;20075;-66
2022/01/31 07:01:00;;;;;;;24.70;3.78;;;;;;;;;;5042486;28;20053;-66
2022/01/31 07:03:26;;;;;;;25.40;3.80;;;;;;;;;;5048305;28;20036;-66
2022/01/31 07:05:52;;;;;;;25.77;4.25;;;;;;;;;;5049452;28;20379;-66
2022/01/31 07:08:18;;;;;;;17.30;3.67;;;;;;;;;;5034636;28;20064;-66
2022/01/31 07:10:51;;;;;;;24.77;3.38;;;;;;;;;;5042298;28;20021;-66
2022/01/31 07:13:35;;;;;;;28.20;5.60;;;;;;;;;;5051727;28;20400;-66
2022/01/31 07:16:02;;;;;;;28.65;3.83;;;;;;;;;;5039298;28;20029;-65
2022/01/31 07:18:29;;;;;;;25.25;3.60;;;;;;;;;;5047121;28;20481;-65
2022/01/31 07:20:56;;;;;;;16.00;3.05;;;;;;;;;;5040938;28;20108;-65
2022/01/31 07:23:39;;;;;;;21.55;3.33;;;;;;;;;;5033767;28;20482;-65
2022/01/31 07:26:05;;;;;;;16.95;3.42;;;;;;;;;;5036887;28;20029;-65
2022/01/31 07:28:31;;;;;;;25.08;5.43;;;;;;;;;;5052770;28;20033;-66
2022/01/31 07:30:57;;;;;;;20.83;4.38;;;;;;;;;;5044056;28;20521;-66
2022/01/31 07:33:24;;;;;;;22.67;4.07;;;;;;;;;;5046362;28;20024;-66
2022/01/31 07:35:51;;;;;;;23.48;4.22;;;;;;;;;;5041061;28;20021;-66
2022/01/31 07:38:17;;;;;;;30.65;4.35;;;;;;;;;;5041719;28;20037;-66
2022/01/31 07:40:44;;;;;;;25.90;3.92;;;;;;;;;;5039089;28;20386;-66
2022/01/31 07:43:10;;;;;;;33.78;5.38;;;;;;;;;;5043068;28;20058;-66
2022/01/31 07:45:37;;;;;;;32.95;6.05;;;;;;;;;;5029397;28;20051;-67
2022/01/31 07:48:03;;;;;;;31.65;4.72;;;;;;;;;;5050034;28;20037;-69
2022/01/31 07:50:31;;;;;;;25.50;3.75;;;;;;;;;;5038863;28;20021;-66
2022/01/31 07:52:57;;;;;;;26.23;4.70;;;;;;;;;;5042974;28;20021;-65
2022/01/31 07:55:24;;;;;;;22.00;4.35;;;;;;;;;;5046175;28;20083;-65
2022/01/31 07:57:50;;;;;;;18.38;3.72;;;;;;;;;;5043052;28;20112;-66
2022/01/31 08:00:16;;;;;;;21.48;4.03;;;;;;;;;;5040976;28;20474;-65
2022/01/31 08:02:42;;;;;;;19.95;3.45;;;;;;;;;;5047890;28;20069;-65
2022/01/31 08:05:09;;;;;;;49.42;5.43;;;;;;;;;;5042921;28;20079;-66
2022/01/31 08:07:35;;;;;;;26.92;5.47;;;;;;;;;;5050564;28;20486;-65
2022/01/31 08:10:02;;;;;;;21.42;3.63;;;;;;;;;;5047590;28;20033;-65
2022/01/31 08:12:29;;;;;;;23.75;5.03;;;;;;;;;;5046979;28;20031;-65
2022/01/31 08:15:01;;;;;;;31.35;5.30;;;;;;;;;;5046090;28;20029;-65
2022/01/31 08:17:27;;;;;;;30.90;4.30;;;;;;;;;;5041517;28;20519;-65
2022/01/31 08:19:53;;;;;;;29.15;4.00;;;;;;;;;;5040704;28;20120;-65
2022/01/31 08:22:19;;;;;;;25.30;4.45;;;;;;;;;;5047236;28;20020;-65
2022/01/31 08:24:46;;;;;;;22.60;3.97;;;;;;;;;;5040315;28;20021;-65
2022/01/31 08:27:12;;;;;;;27.00;4.47;;;;;;;;;;5043389;28;20436;-65
2022/01/31 08:29:39;;;;;;;22.65;3.70;;;;;;;;;;5040618;28;20021;-65
2022/01/31 08:32:10;;;;;;;26.88;4.53;;;;;;;;;;5042732;28;20025;-65
2022/01/31 08:37:21;;;;;;;28.63;5.05;;;;;;;;;;5044834;28;20032;-65
2022/01/31 08:39:48;;;;;;;29.60;4.43;;;;;;;;;;5040479;28;20044;-65
2022/01/31 08:42:14;;;;;;;31.27;4.97;;;;;;;;;;5039503;28;20032;-65
2022/01/31 08:44:40;;;;;;;31.77;5.05;;;;;;;;;;5040884;28;20021;-65
2022/01/31 08:47:06;;;;;;;29.13;5.55;;;;;;;;;;5036781;28;20040;-65
2022/01/31 08:49:36;;;;;;;37.92;4.88;;;;;;;;;;5050889;28;20025;-65
2022/01/31 08:52:03;;;;;;;22.77;4.03;;;;;;;;;;5051269;28;20021;-65
2022/01/31 08:54:29;;;;;;;26.67;4.95;;;;;;;;;;5049411;28;20025;-65
2022/01/31 08:56:55;;;;;;;34.13;5.97;;;;;;;;;;5044676;28;20057;-65
2022/01/31 08:59:24;;;;;;;32.08;4.70;;;;;;;;;;5044381;28;20032;-65
2022/01/31 09:02:12;;;;;;;20.77;4.38;;;;;;;;;;5047227;28;20043;-65
2022/01/31 09:04:47;;;;;;;34.03;6.75;;;;;;;;;;5041317;28;20474;-65
2022/01/31 09:07:15;;;;;;;31.17;4.90;;;;;;;;;;5046518;28;20036;-65
2022/01/31 09:09:41;;;;;;;21.23;4.13;;;;;;;;;;5047705;28;20028;-65
2022/01/31 09:12:09;;;;;;;23.50;4.35;;;;;;;;;;5046953;28;20117;-65
2022/01/31 09:14:35;;;;;;;28.92;5.43;;;;;;;;;;5044129;28;20029;-65
2022/01/31 09:17:01;;;;;;;32.40;4.82;;;;;;;;;;5049258;28;20481;-65
2022/01/31 09:19:27;;;;;;;21.58;4.88;;;;;;;;;;5041634;28;20033;-65
2022/01/31 09:21:53;;;;;;;30.40;4.47;;;;;;;;;;5044345;28;20020;-68
2022/01/31 09:24:20;;;;;;;35.03;5.03;;;;;;;;;;5045719;28;20043;-68
2022/01/31 09:26:47;;;;;;;27.40;4.70;;;;;;;;;;5048960;28;20033;-68
2022/01/31 09:29:13;;;;;;;28.48;7.05;;;;;;;;;;5053622;28;20492;-68
2022/01/31 09:31:39;;;;;;;29.30;4.20;;;;;;;;;;5046014;28;20109;-68
2022/01/31 09:34:06;;;;;;;21.83;4.18;;;;;;;;;;5048722;28;20067;-68
2022/01/31 09:36:32;;;;;;;20.98;3.70;;;;;;;;;;5046793;28;20017;-68
2022/01/31 09:38:59;;;;;;;23.50;3.97;;;;;;;;;;5046339;28;20037;-68
2022/01/31 09:41:27;;;;;;;34.92;4.57;;;;;;;;;;5047946;28;20025;-68
2022/01/31 09:44:07;;;;;;;24.60;5.10;;;;;;;;;;5046572;28;20030;-68
2022/01/31 09:46:47;;;;;;;25.85;4.82;;;;;;;;;;5047929;28;20025;-68
2022/01/31 09:49:13;;;;;;;28.75;5.43;;;;;;;;;;5051236;28;20040;-69
2022/01/31 09:51:39;;;;;;;31.05;6.85;;;;;;;;;;5052343;28;20408;-69
2022/01/31 09:54:06;;;;;;;33.08;5.10;;;;;;;;;;5051829;28;20124;-69
2022/01/31 09:56:33;;;;;;;30.42;5.10;;;;;;;;;;5053655;28;20064;-66
2022/01/31 09:59:00;;;;;;;27.50;5.07;;;;;;;;;;5048692;28;20124;-67
2022/01/31 10:01:28;;;;;;;29.73;4.95;;;;;;;;;;5049202;28;20033;-66
2022/01/31 10:04:01;;;;;;;44.28;5.75;;;;;;;;;;5054068;28;20119;-66
2022/01/31 10:06:38;;;;;;;29.67;5.72;;;;;;;;;;5044699;28;20388;-65
2022/01/31 10:09:13;;;;;;;40.13;6.55;;;;;;;;;;5048345;28;20500;-66
2022/01/31 10:11:49;;;;;;;24.20;4.25;;;;;;;;;;5050838;28;20033;-66
2022/01/31 10:17:21;;;;;;;27.92;4.55;;;;;;;;;;5052768;28;20135;-67
2022/01/31 10:19:47;;;;;;;21.77;4.35;;;;;;;;;;5046785;28;20493;-65
2022/01/31 10:22:15;;;;;;;30.02;4.38;;;;;;;;;;5044109;28;20025;-68
2022/01/31 10:24:43;;;;;;;21.83;4.03;;;;;;;;;;5044930;28;20397;-69
2022/01/31 10:27:11;;;;;;;25.17;5.22;;;;;;;;;;5044726;28;20079;-69
2022/01/31 10:29:38;;;;;;;23.92;4.80;;;;;;;;;;5044411;28;20427;-69
2022/01/31 10:32:06;;;;;;;26.75;6.45;;;;;;;;;;5039342;28;20018;-69
2022/01/31 10:34:51;;;;;;;32.80;4.32;;;;;;;;;;5048689;28;20021;-69
2022/01/31 10:37:19;;;;;;;21.67;4.10;;;;;;;;;;5045080;28;20039;-69
2022/01/31 10:53:52;;;;;;;32.03;4.38;;;;;;;;;;5050847;28;20075;-69
2022/01/31 10:56:18;;;;;;;24.10;4.72;;;;;;;;;;5040339;28;20032;-69
2022/01/31 10:58:57;;;;;;;23.77;3.92;;;;;;;;;;5050427;28;20017;-69
2022/01/31 11:01:24;;;;;;;29.05;3.53;;;;;;;;;;5049925;28;20029;-69
2022/01/31 11:03:51;;;;;;;35.15;6.75;;;;;;;;;;5052926;28;20086;-69
2022/01/31 11:06:17;;;;;;;20.95;3.63;;;;;;;;;;5050239;28;20029;-69
2022/01/31 11:08:43;;;;;;;33.88;5.03;;;;;;;;;;5041052;28;20030;-69
2022/01/31 11:11:09;;;;;;;29.45;5.20;;;;;;;;;;5043330;28;20021;-69
2022/01/31 11:13:36;;;;;;;24.13;4.43;;;;;;;;;;5044618;28;20029;-69
2022/01/31 11:16:04;;;;;;;30.50;4.13;;;;;;;;;;5040245;28;20032;-70
2022/01/31 11:18:31;;;;;;;33.53;6.20;;;;;;;;;;5047006;28;20029;-70
2022/01/31 11:21:16;;;;;;;22.23;4.38;;;;;;;;;;5046868;28;20029;-70
2022/01/31 11:23:50;;;;;;;33.13;4.95;;;;;;;;;;5047131;28;20025;-70
2022/01/31 11:26:17;;;;;;;20.38;4.10;;;;;;;;;;5045165;28;20083;-69
2022/01/31 11:28:46;;;;;;;28.70;4.03;;;;;;;;;;5051653;28;20029;-70
2022/01/31 11:31:12;;;;;;;22.55;5.07;;;;;;;;;;5048697;28;20035;-70
2022/01/31 11:33:38;;;;;;;27.77;5.05;;;;;;;;;;5050979;28;20025;-70
2022/01/31 11:36:04;;;;;;;21.65;4.00;;;;;;;;;;5049434;28;20021;-70
2022/01/31 11:38:33;;;;;;;17.33;3.65;;;;;;;;;;5042772;28;20564;-70
2022/01/31 11:41:03;;;;;;;25.45;4.50;;;;;;;;;;5050123;28;20119;-70
2022/01/31 11:43:31;;;;;;;25.73;4.88;;;;;;;;;;5050769;28;20033;-70
2022/01/31 11:45:59;;;;;;;21.88;3.97;;;;;;;;;;5043244;28;20069;-70
2022/01/31 11:48:27;;;;;;;23.33;3.63;;;;;;;;;;5043459;28;20033;-70
2022/01/31 11:50:55;;;;;;;21.98;4.07;;;;;;;;;;5049476;28;20041;-71
2022/01/31 11:53:30;;;;;;;12.82;4.57;;;;;;;;;;5041317;28;20489;-71
2022/01/31 11:56:17;;;;;;;26.10;3.75;;;;;;;;;;5041881;28;20057;-70
2022/01/31 11:58:45;;;;;;;33.25;6.68;;;;;;;;;;5046897;28;20036;-70
2022/01/31 12:01:11;;;;;;;22.65;4.00;;;;;;;;;;5021257;28;20025;-70
2022/01/31 12:03:49;;;;;;;27.10;4.50;;;;;;;;;;5049576;28;20056;-70
2022/01/31 12:06:20;;;;;;;23.98;5.05;;;;;;;;;;5051005;28;20035;-70
2022/01/31 12:08:47;;;;;;;22.50;3.67;;;;;;;;;;5036016;28;20033;-70
2022/01/31 12:11:17;;;;;;;16.00;3.60;;;;;;;;;;5040438;28;20370;-70
2022/01/31 12:13:49;;;;;;;25.02;4.95;;;;;;;;;;5038199;28;20079;-70
2022/01/31 12:16:40;;;;;;;23.25;4.13;;;;;;;;;;5041813;28;20091;-70
2022/01/31 12:21:59;;;;;;;26.45;3.65;;;;;;;;;;5042907;28;20033;-70
2022/01/31 12:24:30;;;;;;;25.77;4.85;;;;;;;;;;5036588;28;21431;-70
2022/01/31 12:26:56;;;;;;;20.65;4.35;;;;;;;;;;5039248;28;20038;-70
2022/01/31 12:29:24;;;;;;;33.20;4.55;;;;;;;;;;5041514;28;20057;-71
2022/01/31 12:32:09;;;;;;;18.20;4.10;;;;;;;;;;5049604;28;20489;-70
2022/01/31 12:34:37;;;;;;;27.13;4.90;;;;;;;;;;5040613;28;20016;-70
2022/01/31 12:37:26;;;;;;;20.35;3.67;;;;;;;;;;5048273;28;20031;-70
2022/01/31 12:40:01;;;;;;;23.50;4.25;;;;;;;;;;4948680;29;20550;-70
2022/01/31 12:45:18;;;;;;;19.38;3.30;;;;;;;;;;4941797;29;20095;-70
2022/01/31 12:48:02;;;;;;;26.40;3.97;;;;;;;;;;4935895;29;20538;-70
2022/01/31 12:50:29;;;;;;;28.45;3.45;;;;;;;;;;4946736;29;20039;-70
2022/01/31 12:52:55;;;;;;;24.20;3.45;;;;;;;;;;4944975;28;20055;-70
2022/01/31 12:55:22;;;;;;;25.58;4.75;;;;;;;;;;4949260;29;20027;-70
2022/01/31 12:57:52;;;;;;;29.52;3.72;;;;;;;;;;4943597;29;20072;-70
2022/01/31 13:00:35;;;;;;;22.77;3.78;;;;;;;;;;4945539;29;20492;-70
2022/01/31 13:03:02;;;;;;;16.65;3.30;;;;;;;;;;4940725;28;20039;-70
2022/01/31 13:05:32;;;;;;;28.92;5.45;;;;;;;;;;4939325;29;20126;-70
2022/01/31 13:07:58;;;;;;;31.70;4.25;;;;;;;;;;4936861;29;20539;-70
2022/01/31 13:10:24;;;;;;;28.92;4.28;;;;;;;;;;4945587;29;20035;-70
2022/01/31 13:13:02;;;;;;;35.78;4.60;;;;;;;;;;4942585;29;20028;-70
2022/01/31 13:15:28;;;;;;;17.85;4.03;;;;;;;;;;4931782;29;20548;-70
2022/01/31 13:18:07;;;;;;;29.67;5.32;;;;;;;;;;5036973;28;20052;-70
2022/01/31 13:20:34;;;;;;;29.77;5.45;;;;;;;;;;5043398;28;20021;-70
2022/01/31 13:23:01;;;;;;;22.75;4.10;;;;;;;;;;5042987;28;20041;-70
2022/01/31 13:25:27;;;;;;;14.70;3.80;;;;;;;;;;5039914;28;20101;-70
2022/01/31 13:27:54;;;;;;;31.55;4.00;;;;;;;;;;5046399;28;20036;-70
2022/01/31 13:30:30;;;;;;;23.58;3.97;;;;;;;;;;5037471;28;20021;-70
2022/01/31 13:32:57;;;;;;;23.50;4.18;;;;;;;;;;5041741;28;20420;-70
2022/01/31 13:35:24;;;;;;;21.13;3.90;;;;;;;;;;5046819;28;20096;-70
2022/01/31 13:37:50;;;;;;;22.20;5.30;;;;;;;;;;5045643;28;20021;-70
2022/01/31 13:40:17;;;;;;;25.75;3.75;;;;;;;;;;5047960;28;20041;-70
2022/01/31 13:42:44;;;;;;;29.73;5.05;;;;;;;;;;5046935;28;20025;-70
2022/01/31 13:45:16;;;;;;;21.65;3.58;;;;;;;;;;5048372;28;20404;-70
2022/01/31 13:47:57;;;;;;;12.95;3.10;;;;;;;;;;5043664;28;20040;-70
2022/01/31 13:50:26;;;;;;;27.13;3.53;;;;;;;;;;5047318;28;20029;-70
2022/01/31 13:53:11;;;;;;;26.70;3.35;;;;;;;;;;5041528;28;20033;-70
2022/01/31 13:55:42;;;;;;;25.80;4.10;;;;;;;;;;5041855;28;20025;-70
2022/01/31 13:58:09;;;;;;;24.60;3.72;;;;;;;;;;5046803;28;20025;-70
2022/01/31 14:00:36;;;;;;;18.45;3.83;;;;;;;;;;5037641;28;22057;-70
2022/01/31 14:03:03;;;;;;;19.75;3.28;;;;;;;;;;5040746;28;20116;-70
2022/01/31 14:05:29;;;;;;;22.10;3.72;;;;;;;;;;5041809;28;20025;-70
2022/01/31 14:08:03;;;;;;;22.17;3.60;;;;;;;;;;5035308;28;20025;-70
2022/01/31 14:10:31;;;;;;;23.80;4.05;;;;;;;;;;5039563;28;20017;-70
2022/01/31 14:12:58;;;;;;;33.10;4.13;;;;;;;;;;5047155;28;20123;-70
2022/01/31 14:15:24;;;;;;;23.33;5.85;;;;;;;;;;5048823;28;20175;-70
2022/01/31 14:17:51;;;;;;;19.83;3.42;;;;;;;;;;5045433;28;20420;-70
2022/01/31 14:20:19;;;;;;;28.48;4.13;;;;;;;;;;5047377;28;20462;-70
2022/01/31 14:22:45;;;;;;;25.25;4.18;;;;;;;;;;5048814;28;20028;-70
2022/01/31 14:25:12;;;;;;;20.98;3.55;;;;;;;;;;5051397;28;20037;-70
2022/01/31 14:27:49;;;;;;;23.73;4.15;;;;;;;;;;5047950;28;20017;-70
2022/01/31 14:30:19;;;;;;;28.15;3.58;;;;;;;;;;5048265;28;20520;-70
2022/01/31 14:32:55;;;;;;;23.25;3.33;;;;;;;;;;5044047;28;20078;-70
2022/01/31 14:35:23;;;;;;;24.58;4.47;;;;;;;;;;5050541;28;20040;-70
2022/01/31 14:37:55;;;;;;;11.10;3.10;;;;;;;;;;5042592;28;20024;-70
2022/01/31 14:40:50;;;;;;;20.92;3.75;;;;;;;;;;5049779;28;20448;-70
2022/01/31 14:43:22;;;;;;;26.10;3.83;;;;;;;;;;5047631;28;20205;-70
2022/01/31 14:48:53;;;;;;;17.58;3.53;;;;;;;;;;5047123;28;20039;-70
2022/01/31 14:51:26;;;;;;;24.13;3.60;;;;;;;;;;5048083;28;20021;-69
2022/01/31 14:54:00;;;;;;;24.23;3.67;;;;;;;;;;5043447;28;20032;-69
2022/01/31 14:56:26;;;;;;;28.58;3.38;;;;;;;;;;5046645;28;20022;-70
2022/01/31 14:58:53;;;;;;;23.27;5.03;;;;;;;;;;5048199;28;20124;-70
2022/01/31 15:01:19;;;;;;;25.02;3.92;;;;;;;;;;5050077;28;20033;-69
2022/01/31 15:03:45;;;;;;;17.08;3.42;;;;;;;;;;5051285;28;20044;-70
2022/01/31 15:06:11;;;;;;;20.23;4.10;;;;;;;;;;5050866;28;20021;-70
2022/01/31 15:08:37;;;;;;;21.13;3.15;;;;;;;;;;5049707;28;20041;-70